createdAt,value
2019-04-01T00:00:10.118Z,15.00
2019-04-01T00:01:10.005Z,14.90
2019-04-01T00:02:09.909Z,15.40
2019-04-01T00:03:09.802Z,15.10
2019-04-01T00:04:09.702Z,15.60
2019-04-01T00:05:09.619Z,15.80
2019-04-01T00:06:09.498Z,14.90
2019-04-01T00:07:09.400Z,15.50
2019-04-01T00:08:09.307Z,14.80
2019-04-01T00:09:09.199Z,15.20
2019-04-01T00:10:09.114Z,15.20
2019-04-01T00:11:08.996Z,14.90
2019-04-01T00:12:08.896Z,16.00
2019-04-01T00:13:08.796Z,15.90
2019-04-01T00:14:08.696Z,15.00
2019-04-01T00:15:08.611Z,15.70
2019-04-01T00:16:08.494Z,15.60
2019-04-01T00:17:08.397Z,15.30
2019-04-01T00:18:08.293Z,16.50
2019-04-01T00:19:08.192Z,15.20
2019-04-01T00:20:08.112Z,15.70
2019-04-01T00:21:07.991Z,15.20
2019-04-01T00:22:07.909Z,15.40
2019-04-01T00:23:07.922Z,15.60
2019-04-01T00:24:07.701Z,16.20
2019-04-01T00:25:07.605Z,15.70
2019-04-01T00:26:07.500Z,15.50
2019-04-01T00:27:07.388Z,16.50
2019-04-01T00:28:07.288Z,15.90
2019-04-01T00:29:07.185Z,14.00
2019-04-01T00:30:07.101Z,14.30
2019-04-01T00:31:06.990Z,15.30
2019-04-01T00:32:06.883Z,14.70
2019-04-01T00:33:06.782Z,16.40
2019-04-01T00:34:06.714Z,16.70
2019-04-01T00:35:06.585Z,16.70
2019-04-01T00:36:06.496Z,16.20
2019-04-01T00:37:06.378Z,16.30
2019-04-01T00:38:06.281Z,15.60
2019-04-01T00:39:06.178Z,15.00
2019-04-01T00:40:06.094Z,15.90
2019-04-01T00:41:05.975Z,16.20
2019-04-01T00:42:05.874Z,16.30
2019-04-01T00:43:05.772Z,17.10
2019-04-01T00:44:05.674Z,17.00
2019-04-01T00:45:05.573Z,17.60
2019-04-01T00:46:05.488Z,16.20
2019-04-01T00:47:05.376Z,15.60
2019-04-01T00:48:05.270Z,16.20
2019-04-01T00:49:05.175Z,14.90
2019-04-01T00:50:05.068Z,15.70
2019-04-01T00:51:04.981Z,16.70
2019-04-01T00:52:04.868Z,18.10
2019-04-01T00:53:04.766Z,17.20
2019-04-01T00:54:04.664Z,17.00
2019-04-01T00:55:04.563Z,16.50
2019-04-01T00:56:04.486Z,17.00
2019-04-01T00:57:04.361Z,16.50
2019-04-01T00:58:04.259Z,16.50
2019-04-01T00:59:04.161Z,17.30
2019-04-01T01:00:04.059Z,17.00
2019-04-01T01:01:03.972Z,17.00
2019-04-01T01:02:03.857Z,16.60
2019-04-01T01:03:03.753Z,16.40
2019-04-01T01:04:03.657Z,17.10
2019-04-01T01:05:03.554Z,17.70
2019-04-01T01:06:03.469Z,16.30
2019-04-01T01:07:03.348Z,16.10
2019-04-01T01:08:03.246Z,15.90
2019-04-01T01:09:03.148Z,16.00
2019-04-01T01:10:03.070Z,15.50
2019-04-01T01:11:02.962Z,15.50
2019-04-01T01:12:02.845Z,15.60
2019-04-01T01:13:02.743Z,15.50
2019-04-01T01:14:02.646Z,16.70
2019-04-01T01:15:02.540Z,16.50
2019-04-01T01:16:02.464Z,16.80
2019-04-01T01:17:02.339Z,16.40
2019-04-01T01:18:02.246Z,16.60
2019-04-01T01:19:02.255Z,16.40
2019-04-01T01:20:02.041Z,17.60
2019-04-01T01:21:01.951Z,16.70
2019-04-01T01:22:01.833Z,15.10
2019-04-01T01:23:01.731Z,15.00
2019-04-01T01:24:01.634Z,15.30
2019-04-01T01:25:01.529Z,16.10
2019-04-01T01:26:01.555Z,15.80
2019-04-01T01:27:01.334Z,15.80
2019-04-01T01:28:01.230Z,15.90
2019-04-01T01:29:01.126Z,15.90
2019-04-01T01:30:01.026Z,16.70
2019-04-01T01:31:00.944Z,15.70
2019-04-01T01:32:00.823Z,15.60
2019-04-01T01:33:00.823Z,15.50
2019-04-01T01:34:00.623Z,14.80
2019-04-01T01:35:00.522Z,15.10
2019-04-01T01:36:00.437Z,15.10
2019-04-01T01:37:00.319Z,14.60
2019-04-01T01:38:00.225Z,14.30
2019-04-01T01:39:00.118Z,14.50
2019-04-01T01:40:00.345Z,14.70
2019-04-01T01:40:59.934Z,14.00
2019-04-01T01:41:59.815Z,15.00
2019-04-01T01:42:59.714Z,15.00
2019-04-01T01:43:59.616Z,13.30
2019-04-01T01:44:59.512Z,14.80
2019-04-01T01:45:59.430Z,14.70
2019-04-01T01:46:59.417Z,15.10
2019-04-01T01:47:59.212Z,14.10
2019-04-01T01:48:59.114Z,13.80
2019-04-01T01:49:59.013Z,13.90
2019-04-01T01:50:58.928Z,14.30
2019-04-01T01:51:58.810Z,14.30
2019-04-01T01:52:58.708Z,14.50
2019-04-01T01:53:58.714Z,13.60
2019-04-01T01:54:58.509Z,14.70
2019-04-01T01:55:58.428Z,13.60
2019-04-01T01:56:58.311Z,13.80
2019-04-01T01:57:58.207Z,13.80
2019-04-01T01:58:58.109Z,13.30
2019-04-01T01:59:58.009Z,13.60
2019-04-01T02:00:58.028Z,13.20
2019-04-01T02:01:57.807Z,13.80
2019-04-01T02:02:57.707Z,13.30
2019-04-01T02:03:57.609Z,14.20
2019-04-01T02:04:57.508Z,13.80
2019-04-01T02:05:57.425Z,13.90
2019-04-01T02:06:57.311Z,13.70
2019-04-01T02:07:57.313Z,13.40
2019-04-01T02:08:57.106Z,12.70
2019-04-01T02:09:57.005Z,13.40
2019-04-01T02:10:56.927Z,13.40
2019-04-01T02:11:56.813Z,13.40
2019-04-01T02:12:56.709Z,13.30
2019-04-01T02:13:56.608Z,13.40
2019-04-01T02:14:56.609Z,13.30
2019-04-01T02:15:56.425Z,12.90
2019-04-01T02:16:56.308Z,12.80
2019-04-01T02:17:56.208Z,13.10
2019-04-01T02:18:56.111Z,12.90
2019-04-01T02:19:56.008Z,13.40
2019-04-01T02:20:55.925Z,13.30
2019-04-01T02:21:55.917Z,13.40
2019-04-01T02:22:55.715Z,13.00
2019-04-01T02:23:55.609Z,12.60
2019-04-01T02:24:55.530Z,13.20
2019-04-01T02:25:55.411Z,13.80
2019-04-01T02:26:55.326Z,13.30
2019-04-01T02:27:55.338Z,13.10
2019-04-01T02:28:55.112Z,13.30
2019-04-01T02:29:55.011Z,13.40
2019-04-01T02:30:54.930Z,13.20
2019-04-01T02:31:54.813Z,13.50
2019-04-01T02:32:54.715Z,12.80
2019-04-01T02:33:54.624Z,13.40
2019-04-01T02:34:54.513Z,13.20
2019-04-01T02:35:54.414Z,13.30
2019-04-01T02:36:54.333Z,12.80
2019-04-01T02:37:54.214Z,13.40
2019-04-01T02:38:54.118Z,12.80
2019-04-01T02:39:54.109Z,12.70
2019-04-01T02:40:53.920Z,12.20
2019-04-01T02:41:53.837Z,13.20
2019-04-01T02:42:53.719Z,19.80
2019-04-01T02:43:53.615Z,12.50
2019-04-01T02:44:53.540Z,17.80
2019-04-01T02:45:53.419Z,15.10
2019-04-01T02:46:53.333Z,13.30
2019-04-01T02:47:53.218Z,12.40
2019-04-01T02:48:53.117Z,11.90
2019-04-01T02:49:53.314Z,12.50
2019-04-01T02:50:52.921Z,12.70
2019-04-01T02:51:52.836Z,11.90
2019-04-01T02:52:52.718Z,12.40
2019-04-01T02:53:52.622Z,11.90
2019-04-01T02:54:52.545Z,11.10
2019-04-01T02:55:52.422Z,10.00
2019-04-01T02:56:52.444Z,10.70
2019-04-01T02:57:52.221Z,9.80
2019-04-01T02:58:52.123Z,9.40
2019-04-01T02:59:52.029Z,8.80
2019-04-01T03:00:51.927Z,9.80
2019-04-01T03:01:51.842Z,9.30
2019-04-01T03:02:51.726Z,9.70
2019-04-01T03:03:51.628Z,8.70
2019-04-01T03:04:51.530Z,8.50
2019-04-01T03:05:51.460Z,8.70
2019-04-01T03:06:51.344Z,8.20
2019-04-01T03:07:51.232Z,8.80
2019-04-01T03:08:51.128Z,8.80
2019-04-01T03:09:51.029Z,8.80
2019-04-01T03:10:50.929Z,8.30
2019-04-01T03:11:50.848Z,8.60
2019-04-01T03:12:50.748Z,8.30
2019-04-01T03:13:50.630Z,8.70
2019-04-01T03:14:50.539Z,7.90
2019-04-01T03:15:50.432Z,8.50
2019-04-01T03:16:50.347Z,8.40
2019-04-01T03:17:50.229Z,8.40
2019-04-01T03:18:50.130Z,8.50
2019-04-01T03:19:50.046Z,9.10
2019-04-01T03:20:49.932Z,8.80
2019-04-01T03:21:49.849Z,8.40
2019-04-01T03:22:49.736Z,8.50
2019-04-01T03:23:49.655Z,8.50
2019-04-01T03:24:49.535Z,9.00
2019-04-01T03:25:49.438Z,9.10
2019-04-01T03:26:49.351Z,8.70
2019-04-01T03:27:49.247Z,8.60
2019-04-01T03:28:49.137Z,7.80
2019-04-01T03:29:49.038Z,7.90
2019-04-01T03:30:48.933Z,8.40
2019-04-01T03:31:48.880Z,9.20
2019-04-01T03:32:48.740Z,8.50
2019-04-01T03:33:48.641Z,8.30
2019-04-01T03:34:48.547Z,8.30
2019-04-01T03:35:48.439Z,8.20
2019-04-01T03:36:48.353Z,8.70
2019-04-01T03:37:48.237Z,8.70
2019-04-01T03:38:48.138Z,7.20
2019-04-01T03:39:48.049Z,8.70
2019-04-01T03:40:47.937Z,8.10
2019-04-01T03:41:47.853Z,8.60
2019-04-01T03:42:47.737Z,8.20
2019-04-01T03:43:47.638Z,8.20
2019-04-01T03:44:47.538Z,8.20
2019-04-01T03:45:47.437Z,8.00
2019-04-01T03:46:47.364Z,8.60
2019-04-01T03:47:47.236Z,8.30
2019-04-01T03:48:47.142Z,8.20
2019-04-01T03:49:47.035Z,8.50
2019-04-01T03:50:46.938Z,7.50
2019-04-01T03:51:46.854Z,8.30
2019-04-01T03:52:46.745Z,7.80
2019-04-01T03:53:46.646Z,8.80
2019-04-01T03:54:46.538Z,8.60
2019-04-01T03:55:46.437Z,8.20
2019-04-01T03:56:46.352Z,8.50
2019-04-01T03:57:46.246Z,8.20
2019-04-01T03:58:46.137Z,8.10
2019-04-01T03:59:46.169Z,7.90
2019-04-01T04:00:45.936Z,8.40
2019-04-01T04:01:45.855Z,7.80
2019-04-01T04:02:45.738Z,9.00
2019-04-01T04:03:45.636Z,8.10
2019-04-01T04:04:45.541Z,8.10
2019-04-01T04:05:45.440Z,8.40
2019-04-01T04:06:45.463Z,7.50
2019-04-01T04:07:45.245Z,7.80
2019-04-01T04:08:45.140Z,7.70
2019-04-01T04:09:45.037Z,7.00
2019-04-01T04:10:44.938Z,7.70
2019-04-01T04:11:44.855Z,7.10
2019-04-01T04:12:44.737Z,7.00
2019-04-01T04:13:44.746Z,7.70
2019-04-01T04:14:44.538Z,7.20
2019-04-01T04:15:44.437Z,6.30
2019-04-01T04:16:44.352Z,7.30
2019-04-01T04:17:44.257Z,6.80
2019-04-01T04:18:44.140Z,6.90
2019-04-01T04:19:44.038Z,7.70
2019-04-01T04:20:44.040Z,7.20
2019-04-01T04:21:43.840Z,6.90
2019-04-01T04:22:43.753Z,7.20
2019-04-01T04:23:43.638Z,7.60
2019-04-01T04:24:43.539Z,7.10
2019-04-01T04:25:43.441Z,7.10
2019-04-01T04:26:43.349Z,6.60
2019-04-01T04:27:43.372Z,7.00
2019-04-01T04:28:43.149Z,6.90
2019-04-01T04:29:43.046Z,7.30
2019-04-01T04:30:42.937Z,6.50
2019-04-01T04:31:42.840Z,7.00
2019-04-01T04:32:42.755Z,7.60
2019-04-01T04:33:42.637Z,6.90
2019-04-01T04:34:42.639Z,7.00
2019-04-01T04:35:42.439Z,7.00
2019-04-01T04:36:42.335Z,6.70
2019-04-01T04:37:42.254Z,6.90
2019-04-01T04:38:42.139Z,7.10
2019-04-01T04:39:42.034Z,7.50
2019-04-01T04:40:41.942Z,7.40
2019-04-01T04:41:41.934Z,6.90
2019-04-01T04:42:41.749Z,7.30
2019-04-01T04:43:41.632Z,7.70
2019-04-01T04:44:41.536Z,7.20
2019-04-01T04:45:41.436Z,7.40
2019-04-01T04:46:41.334Z,7.20
2019-04-01T04:47:41.249Z,6.60
2019-04-01T04:48:41.251Z,7.30
2019-04-01T04:49:41.034Z,6.90
2019-04-01T04:50:40.931Z,7.40
2019-04-01T04:51:40.833Z,7.00
2019-04-01T04:52:40.750Z,6.90
2019-04-01T04:53:40.637Z,6.80
2019-04-01T04:54:40.529Z,7.10
2019-04-01T04:55:40.528Z,7.00
2019-04-01T04:56:40.329Z,6.60
2019-04-01T04:57:40.244Z,6.90
2019-04-01T04:58:40.128Z,7.20
2019-04-01T04:59:40.029Z,7.00
2019-04-01T05:00:39.931Z,7.20
2019-04-01T05:01:39.825Z,6.90
2019-04-01T05:02:39.842Z,6.90
2019-04-01T05:03:39.626Z,6.90
2019-04-01T05:04:39.524Z,6.80
2019-04-01T05:05:39.428Z,7.50
2019-04-01T05:06:39.323Z,7.00
2019-04-01T05:07:39.245Z,6.60
2019-04-01T05:08:39.121Z,6.70
2019-04-01T05:09:39.120Z,6.80
2019-04-01T05:10:38.923Z,6.90
2019-04-01T05:11:38.824Z,7.20
2019-04-01T05:12:38.737Z,6.90
2019-04-01T05:13:38.627Z,6.50
2019-04-01T05:14:38.518Z,6.90
2019-04-01T05:15:38.417Z,6.70
2019-04-01T05:16:38.317Z,6.90
2019-04-01T05:17:38.235Z,6.70
2019-04-01T05:18:38.118Z,6.70
2019-04-01T05:19:38.016Z,7.00
2019-04-01T05:20:37.921Z,6.20
2019-04-01T05:21:37.816Z,6.70
2019-04-01T05:22:37.735Z,7.20
2019-04-01T05:23:37.616Z,6.80
2019-04-01T05:24:37.512Z,6.50
2019-04-01T05:25:37.412Z,6.70
2019-04-01T05:26:37.315Z,6.90
2019-04-01T05:27:37.241Z,6.20
2019-04-01T05:28:37.113Z,6.40
2019-04-01T05:29:37.010Z,6.30
2019-04-01T05:30:36.912Z,6.40
2019-04-01T05:31:36.811Z,6.50
2019-04-01T05:32:36.730Z,6.40
2019-04-01T05:33:36.613Z,6.10
2019-04-01T05:34:36.511Z,5.90
2019-04-01T05:35:36.422Z,6.30
2019-04-01T05:36:36.307Z,6.40
2019-04-01T05:37:36.223Z,6.00
2019-04-01T05:38:36.107Z,6.10
2019-04-01T05:39:36.009Z,6.60
2019-04-01T05:40:35.906Z,5.60
2019-04-01T05:41:35.809Z,5.10
2019-04-01T05:42:35.723Z,5.60
2019-04-01T05:43:35.606Z,5.70
2019-04-01T05:44:35.510Z,5.40
2019-04-01T05:45:35.405Z,5.30
2019-04-01T05:46:35.342Z,5.20
2019-04-01T05:47:35.223Z,5.70
2019-04-01T05:48:35.105Z,5.40
2019-04-01T05:49:35.005Z,5.20
2019-04-01T05:50:34.905Z,5.20
2019-04-01T05:51:34.813Z,5.60
2019-04-01T05:52:34.724Z,5.20
2019-04-01T05:53:34.607Z,5.30
2019-04-01T05:54:34.507Z,5.30
2019-04-01T05:55:34.407Z,5.10
2019-04-01T05:56:34.309Z,5.10
2019-04-01T05:57:34.211Z,5.10
2019-04-01T05:58:34.126Z,4.90
2019-04-01T05:59:34.015Z,5.40
2019-04-01T06:00:33.917Z,5.20
2019-04-01T06:01:33.810Z,5.80
2019-04-01T06:02:33.730Z,5.60
2019-04-01T06:03:33.613Z,5.40
2019-04-01T06:04:33.629Z,6.00
2019-04-01T06:05:33.411Z,5.80
2019-04-01T06:06:33.311Z,5.50
2019-04-01T06:07:33.218Z,5.50
2019-04-01T06:08:33.132Z,5.40
2019-04-01T06:09:33.014Z,5.20
2019-04-01T06:10:32.915Z,4.80
2019-04-01T06:11:32.813Z,6.10
2019-04-01T06:12:32.715Z,5.90
2019-04-01T06:13:32.630Z,5.90
2019-04-01T06:14:32.517Z,5.60
2019-04-01T06:15:32.420Z,5.80
2019-04-01T06:16:32.317Z,5.90
2019-04-01T06:17:32.217Z,5.30
2019-04-01T06:18:32.254Z,5.40
2019-04-01T06:19:32.021Z,5.40
2019-04-01T06:20:31.918Z,5.50
2019-04-01T06:21:31.821Z,5.70
2019-04-01T06:22:31.738Z,5.30
2019-04-01T06:23:31.638Z,5.50
2019-04-01T06:24:31.520Z,5.30
2019-04-01T06:25:31.582Z,4.90
2019-04-01T06:26:31.327Z,4.80
2019-04-01T06:27:31.734Z,5.30
2019-04-01T06:28:31.141Z,5.60
2019-04-01T06:29:31.022Z,5.00
2019-04-01T06:30:30.925Z,5.60
2019-04-01T06:31:30.828Z,5.70
2019-04-01T06:32:30.853Z,5.80
2019-04-01T06:33:30.647Z,5.90
2019-04-01T06:34:30.539Z,6.40
2019-04-01T06:35:30.432Z,6.50
2019-04-01T06:36:30.333Z,5.80
2019-04-01T06:37:30.234Z,6.00
2019-04-01T06:38:30.153Z,6.40
2019-04-01T06:39:30.144Z,6.50
2019-04-01T06:40:29.944Z,6.60
2019-04-01T06:41:29.841Z,5.80
2019-04-01T06:42:29.738Z,6.50
2019-04-01T06:43:29.661Z,6.50
2019-04-01T06:44:29.543Z,6.90
2019-04-01T06:45:29.447Z,7.70
2019-04-01T06:46:29.458Z,7.50
2019-04-01T06:47:29.250Z,7.40
2019-04-01T06:48:29.170Z,7.30
2019-04-01T06:49:29.055Z,7.20
2019-04-01T06:50:28.957Z,7.70
2019-04-01T06:51:28.860Z,7.50
2019-04-01T06:52:28.762Z,7.30
2019-04-01T06:53:28.826Z,7.70
2019-04-01T06:54:28.569Z,7.70
2019-04-01T06:55:28.473Z,7.90
2019-04-01T06:56:28.371Z,7.80
2019-04-01T06:57:28.276Z,7.30
2019-04-01T06:58:28.195Z,7.90
2019-04-01T06:59:28.083Z,7.60
2019-04-01T07:00:28.087Z,7.50
2019-04-01T07:01:27.888Z,7.30
2019-04-01T07:02:27.792Z,7.20
2019-04-01T07:03:27.710Z,7.70
2019-04-01T07:04:27.594Z,7.30
2019-04-01T07:05:27.498Z,6.60
2019-04-01T07:06:27.402Z,7.20
2019-04-01T07:07:27.413Z,7.30
2019-04-01T07:08:27.223Z,7.20
2019-04-01T07:09:27.112Z,6.80
2019-04-01T07:10:27.019Z,6.20
2019-04-01T07:11:27.023Z,7.00
2019-04-01T07:12:26.825Z,6.80
2019-04-01T07:13:26.743Z,6.70
2019-04-01T07:14:26.740Z,6.90
2019-04-01T07:15:26.536Z,6.50
2019-04-01T07:16:26.441Z,6.40
2019-04-01T07:17:26.343Z,6.50
2019-04-01T07:18:26.272Z,6.90
2019-04-01T07:19:26.154Z,6.80
2019-04-01T07:20:26.055Z,6.70
2019-04-01T07:21:26.075Z,6.60
2019-04-01T07:22:25.870Z,6.90
2019-04-01T07:23:25.792Z,6.60
2019-04-01T07:24:25.678Z,6.20
2019-04-01T07:25:25.581Z,6.60
2019-04-01T07:26:25.488Z,6.30
2019-04-01T07:27:25.517Z,6.20
2019-04-01T07:28:25.314Z,6.50
2019-04-01T07:29:25.201Z,5.90
2019-04-01T07:30:25.111Z,6.00
2019-04-01T07:31:25.014Z,5.90
2019-04-01T07:32:24.921Z,6.00
2019-04-01T07:33:24.853Z,6.20
2019-04-01T07:34:24.734Z,6.10
2019-04-01T07:35:24.643Z,6.20
2019-04-01T07:36:24.542Z,5.80
2019-04-01T07:37:24.450Z,6.50
2019-04-01T07:38:26.096Z,6.20
2019-04-01T07:39:24.261Z,5.80
2019-04-01T07:40:24.166Z,6.50
2019-04-01T07:41:24.201Z,5.80
2019-04-01T07:42:23.982Z,5.50
2019-04-01T07:43:23.901Z,5.90
2019-04-01T07:44:23.793Z,5.60
2019-04-01T07:45:23.701Z,5.80
2019-04-01T07:46:23.604Z,5.70
2019-04-01T07:47:23.510Z,5.60
2019-04-01T07:48:23.418Z,5.90
2019-04-01T07:49:23.340Z,6.00
2019-04-01T07:50:23.251Z,5.70
2019-04-01T07:51:23.137Z,5.60
2019-04-01T07:52:23.040Z,6.30
2019-04-01T07:53:22.949Z,5.90
2019-04-01T07:54:22.873Z,5.60
2019-04-01T07:55:22.764Z,5.80
2019-04-01T07:56:22.669Z,6.00
2019-04-01T07:57:22.575Z,6.40
2019-04-01T07:58:22.482Z,6.40
2019-04-01T07:59:22.404Z,6.30
2019-04-01T08:00:22.293Z,6.30
2019-04-01T08:01:22.201Z,6.50
2019-04-01T08:02:22.115Z,6.70
2019-04-01T08:03:22.014Z,6.70
2019-04-01T08:04:21.933Z,5.90
2019-04-01T08:05:21.823Z,6.80
2019-04-01T08:06:21.733Z,6.50
2019-04-01T08:07:21.636Z,6.30
2019-04-01T08:08:21.544Z,5.50
2019-04-01T08:09:21.467Z,5.70
2019-04-01T08:10:21.360Z,6.20
2019-04-01T08:11:21.264Z,5.60
2019-04-01T08:12:21.169Z,6.00
2019-04-01T08:13:21.079Z,6.00
2019-04-01T08:14:21.002Z,6.00
2019-04-01T08:15:21.462Z,5.80
2019-04-01T08:16:20.797Z,6.30
2019-04-01T08:17:20.703Z,6.00
2019-04-01T08:18:20.610Z,5.90
2019-04-01T08:19:20.536Z,6.10
2019-04-01T08:20:20.425Z,6.00
2019-04-01T08:21:20.330Z,6.40
2019-04-01T08:22:20.237Z,6.00
2019-04-01T08:23:20.145Z,6.00
2019-04-01T08:24:20.067Z,6.20
2019-04-01T08:25:19.959Z,6.70
2019-04-01T08:26:19.865Z,6.30
2019-04-01T08:27:19.774Z,6.40
2019-04-01T08:28:19.680Z,6.80
2019-04-01T08:29:29.965Z,6.40
2019-04-01T08:30:19.493Z,5.80
2019-04-01T08:31:19.407Z,6.40
2019-04-01T08:32:19.305Z,7.10
2019-04-01T08:33:19.234Z,7.00
2019-04-01T08:34:19.138Z,6.30
2019-04-01T08:35:19.027Z,6.80
2019-04-01T08:36:18.932Z,6.70
2019-04-01T08:37:18.845Z,6.50
2019-04-01T08:38:18.748Z,5.80
2019-04-01T08:39:18.669Z,6.20
2019-04-01T08:40:18.561Z,6.20
2019-04-01T08:41:18.466Z,7.00
2019-04-01T08:42:18.371Z,6.30
2019-04-01T08:43:18.278Z,6.20
2019-04-01T08:44:18.198Z,7.20
2019-04-01T08:45:18.194Z,6.80
2019-04-01T08:46:17.999Z,7.20
2019-04-01T08:47:17.902Z,7.50
2019-04-01T08:48:17.807Z,7.40
2019-04-01T08:49:17.731Z,7.30
2019-04-01T08:50:17.619Z,6.90
2019-04-01T08:51:17.529Z,6.90
2019-04-01T08:52:17.540Z,7.70
2019-04-01T08:53:17.341Z,7.10
2019-04-01T08:54:17.261Z,7.40
2019-04-01T08:55:17.154Z,7.50
2019-04-01T08:56:17.055Z,7.50
2019-04-01T08:57:16.994Z,7.20
2019-04-01T08:58:16.875Z,7.40
2019-04-01T08:59:16.902Z,7.20
2019-04-01T09:00:16.680Z,7.70
2019-04-01T09:01:16.587Z,7.70
2019-04-01T09:02:18.151Z,7.00
2019-04-01T09:03:16.399Z,7.50
2019-04-01T09:04:16.322Z,7.00
2019-04-01T09:05:16.209Z,7.10
2019-04-01T09:06:16.216Z,6.60
2019-04-01T09:07:16.028Z,7.60
2019-04-01T09:08:15.930Z,7.10
2019-04-01T09:09:15.859Z,6.90
2019-04-01T09:10:15.740Z,7.20
2019-04-01T09:11:15.647Z,8.10
2019-04-01T09:12:15.552Z,8.20
2019-04-01T09:13:15.578Z,8.50
2019-04-01T09:14:15.440Z,8.30
2019-04-01T09:15:15.282Z,8.20
2019-04-01T09:16:15.181Z,8.80
2019-04-01T09:17:15.086Z,8.60
2019-04-01T09:18:14.993Z,8.00
2019-04-01T09:19:14.915Z,8.40
2019-04-01T09:20:14.914Z,8.40
2019-04-01T09:21:14.709Z,8.60
2019-04-01T09:22:14.630Z,8.40
2019-04-01T09:23:14.527Z,8.50
2019-04-01T09:24:14.531Z,8.50
2019-04-01T09:25:14.338Z,8.60
2019-04-01T09:26:14.247Z,8.80
2019-04-01T09:27:14.258Z,8.00
2019-04-01T09:28:14.058Z,8.50
2019-04-01T09:29:13.980Z,9.00
2019-04-01T09:30:13.873Z,8.30
2019-04-01T09:31:13.789Z,8.40
2019-04-01T09:32:13.684Z,8.50
2019-04-01T09:33:13.591Z,8.40
2019-04-01T09:34:13.608Z,8.80
2019-04-01T09:35:13.422Z,8.70
2019-04-01T09:36:13.317Z,9.00
2019-04-01T09:37:13.227Z,8.70
2019-04-01T09:38:13.126Z,8.40
2019-04-01T09:39:13.035Z,8.10
2019-04-01T09:40:12.957Z,8.70
2019-04-01T09:41:13.539Z,8.70
2019-04-01T09:42:12.753Z,8.60
2019-04-01T09:43:14.283Z,9.20
2019-04-01T09:44:12.570Z,9.30
2019-04-01T09:45:12.492Z,8.60
2019-04-01T09:46:12.383Z,8.50
2019-04-01T09:47:12.295Z,8.60
2019-04-01T09:48:12.304Z,8.50
2019-04-01T09:49:12.115Z,9.40
2019-04-01T09:50:12.036Z,9.30
2019-04-01T09:51:11.926Z,9.40
2019-04-01T09:52:11.834Z,8.80
2019-04-01T09:53:11.768Z,8.20
2019-04-01T09:54:11.653Z,8.60
2019-04-01T09:55:11.691Z,9.70
2019-04-01T09:56:11.469Z,9.20
2019-04-01T09:57:18.001Z,9.40
2019-04-01T09:58:11.287Z,9.20
2019-04-01T09:59:11.197Z,8.30
2019-04-01T10:00:11.126Z,9.00
2019-04-01T10:01:11.225Z,9.20
2019-04-01T10:02:10.994Z,8.70
2019-04-01T10:03:10.833Z,9.20
2019-04-01T10:04:10.742Z,9.20
2019-04-01T10:05:10.668Z,9.30
2019-04-01T10:06:10.720Z,9.00
2019-04-01T10:07:10.471Z,8.50
2019-04-01T10:08:10.382Z,9.60
2019-04-01T10:09:10.287Z,10.10
2019-04-01T10:10:10.218Z,9.20
2019-04-01T10:11:12.585Z,9.90
2019-04-01T10:12:10.015Z,8.90
2019-04-01T10:13:09.927Z,9.20
2019-04-01T10:14:09.855Z,10.10
2019-04-01T10:15:09.761Z,9.10
2019-04-01T10:16:09.652Z,9.20
2019-04-01T10:17:09.570Z,9.00
2019-04-01T10:18:09.472Z,9.20
2019-04-01T10:19:09.381Z,9.20
2019-04-01T10:20:09.306Z,9.70
2019-04-01T10:21:09.200Z,10.00
2019-04-01T10:22:09.106Z,9.30
2019-04-01T10:23:09.016Z,9.70
2019-04-01T10:24:08.929Z,11.00
2019-04-01T10:25:08.851Z,10.90
2019-04-01T10:26:08.750Z,12.00
2019-04-01T10:27:08.654Z,10.60
2019-04-01T10:28:08.562Z,11.30
2019-04-01T10:29:08.470Z,11.20
2019-04-01T10:30:08.395Z,11.20
2019-04-01T10:31:08.289Z,11.40
2019-04-01T10:32:08.199Z,9.90
2019-04-01T10:33:08.110Z,10.10
2019-04-01T10:34:08.014Z,10.40
2019-04-01T10:35:07.947Z,11.10
2019-04-01T10:36:07.835Z,11.40
2019-04-01T10:37:07.744Z,10.30
2019-04-01T10:38:07.655Z,10.60
2019-04-01T10:39:07.562Z,9.60
2019-04-01T10:40:07.493Z,10.10
2019-04-01T10:41:07.381Z,10.20
2019-04-01T10:42:07.289Z,10.40
2019-04-01T10:43:07.199Z,10.70
2019-04-01T10:44:07.124Z,10.40
2019-04-01T10:45:07.035Z,10.40
2019-04-01T10:46:06.927Z,9.70
2019-04-01T10:47:06.862Z,10.40
2019-04-01T10:48:06.747Z,9.60
2019-04-01T10:49:06.693Z,11.10
2019-04-01T10:50:06.625Z,10.60
2019-04-01T10:51:06.517Z,10.90
2019-04-01T10:52:06.405Z,10.80
2019-04-01T10:53:06.326Z,10.00
2019-04-01T10:54:06.272Z,11.60
2019-04-01T10:55:06.194Z,10.70
2019-04-01T10:56:06.075Z,11.40
2019-04-01T10:57:05.996Z,10.70
2019-04-01T10:58:05.858Z,10.70
2019-04-01T10:59:05.821Z,10.50
2019-04-01T11:00:05.692Z,10.30
2019-04-01T11:01:05.609Z,10.70
2019-04-01T11:02:05.489Z,12.10
2019-04-01T11:03:06.217Z,11.30
2019-04-01T11:04:05.371Z,11.30
2019-04-01T11:05:05.248Z,11.40
2019-04-01T11:06:05.249Z,11.60
2019-04-01T11:07:05.106Z,10.80
2019-04-01T11:08:04.967Z,10.90
2019-04-01T11:09:04.890Z,11.70
2019-04-01T11:10:04.792Z,11.40
2019-04-01T11:11:04.690Z,11.10
2019-04-01T11:12:04.595Z,12.20
2019-04-01T11:13:04.508Z,11.60
2019-04-01T11:14:04.417Z,12.40
2019-04-01T11:15:04.345Z,12.40
2019-04-01T11:16:04.242Z,11.30
2019-04-01T11:17:04.709Z,11.70
2019-04-01T11:18:04.166Z,11.00
2019-04-01T11:19:03.975Z,12.00
2019-04-01T11:20:03.892Z,14.10
2019-04-01T11:21:04.984Z,12.60
2019-04-01T11:22:03.952Z,13.00
2019-04-01T11:23:05.021Z,12.50
2019-04-01T11:24:05.819Z,12.80
2019-04-01T11:25:03.565Z,13.60
2019-04-01T11:26:03.369Z,11.80
2019-04-01T11:27:03.261Z,12.20
2019-04-01T11:28:03.176Z,11.90
2019-04-01T11:29:03.082Z,11.30
2019-04-01T11:30:02.998Z,11.30
2019-04-01T11:31:02.959Z,11.60
2019-04-01T11:32:02.973Z,12.70
2019-04-01T11:33:02.751Z,12.00
2019-04-01T11:34:02.654Z,12.40
2019-04-01T11:35:02.555Z,12.10
2019-04-01T11:36:02.588Z,10.90
2019-04-01T11:37:02.393Z,11.50
2019-04-01T11:38:02.331Z,12.30
2019-04-01T11:39:02.311Z,12.00
2019-04-01T11:40:02.108Z,11.50
2019-04-01T11:41:02.083Z,10.50
2019-04-01T11:42:01.978Z,11.30
2019-04-01T11:43:04.981Z,10.50
2019-04-01T11:44:01.797Z,10.80
2019-04-01T11:45:05.513Z,11.80
2019-04-01T11:46:01.754Z,11.10
2019-04-01T11:47:01.480Z,11.70
2019-04-01T11:48:01.398Z,11.10
2019-04-01T11:49:01.324Z,11.40
2019-04-01T11:50:01.213Z,13.00
2019-04-01T11:51:01.190Z,11.70
2019-04-01T11:52:01.066Z,11.80
2019-04-01T11:53:01.054Z,11.30
2019-04-01T11:54:00.858Z,11.80
2019-04-01T11:55:00.769Z,12.10
2019-04-01T11:56:00.697Z,11.80
2019-04-01T11:57:00.591Z,13.10
2019-04-01T11:58:00.503Z,14.00
2019-04-01T11:59:00.417Z,13.80
2019-04-01T12:00:00.494Z,13.40
2019-04-01T12:01:00.252Z,13.20
2019-04-01T12:02:00.146Z,12.70
2019-04-01T12:03:00.059Z,11.90
2019-04-01T12:03:59.971Z,11.30
2019-04-01T12:04:59.882Z,10.50
2019-04-01T12:05:59.810Z,12.10
2019-04-01T12:07:02.008Z,11.60
2019-04-01T12:07:59.614Z,11.40
2019-04-01T12:08:59.528Z,11.50
2019-04-01T12:09:59.437Z,11.40
2019-04-01T12:10:59.369Z,12.00
2019-04-01T12:11:59.262Z,12.10
2019-04-01T12:12:59.905Z,13.00
2019-04-01T12:13:59.192Z,12.90
2019-04-01T12:14:59.001Z,11.80
2019-04-01T12:15:58.960Z,11.80
2019-04-01T12:16:58.820Z,12.40
2019-04-01T12:17:58.734Z,12.10
2019-04-01T12:18:58.644Z,11.90
2019-04-01T12:19:58.556Z,12.20
2019-04-01T12:20:58.596Z,13.60
2019-04-01T12:21:58.381Z,11.40
2019-04-01T12:22:58.290Z,11.50
2019-04-01T12:23:58.203Z,11.10
2019-04-01T12:24:58.110Z,11.20
2019-04-01T12:25:58.041Z,11.00
2019-04-01T12:26:58.059Z,10.60
2019-04-01T12:27:57.847Z,12.00
2019-04-01T12:28:57.758Z,11.80
2019-04-01T12:29:57.670Z,11.80
2019-04-01T12:30:57.629Z,11.70
2019-04-01T12:31:59.670Z,11.40
2019-04-01T12:32:57.402Z,11.90
2019-04-01T12:33:57.312Z,12.80
2019-04-01T12:34:57.226Z,13.40
2019-04-01T12:35:57.152Z,11.00
2019-04-01T12:36:57.048Z,11.70
2019-04-01T12:37:56.958Z,12.80
2019-04-01T12:38:56.872Z,11.60
2019-04-01T12:39:56.781Z,12.60
2019-04-01T12:40:56.712Z,12.30
2019-04-01T12:41:56.603Z,11.70
2019-04-01T12:42:56.520Z,11.50
2019-04-01T12:43:56.424Z,12.40
2019-04-01T12:44:56.335Z,11.40
2019-04-01T12:45:56.264Z,12.10
2019-04-01T12:46:56.158Z,12.20
2019-04-01T12:47:56.067Z,12.40
2019-04-01T12:48:55.996Z,12.30
2019-04-01T12:49:55.890Z,11.10
2019-04-01T12:50:55.815Z,12.10
2019-04-01T12:51:58.312Z,12.10
2019-04-01T12:52:55.635Z,12.00
2019-04-01T12:53:55.533Z,11.20
2019-04-01T12:54:55.445Z,12.70
2019-04-01T12:55:55.371Z,11.60
2019-04-01T12:56:55.265Z,12.10
2019-04-01T12:57:55.177Z,12.40
2019-04-01T12:58:55.089Z,13.70
2019-04-01T12:59:54.997Z,14.10
2019-04-01T13:00:54.927Z,14.40
2019-04-01T13:01:54.821Z,14.90
2019-04-01T13:02:54.729Z,14.00
2019-04-01T13:03:54.642Z,13.00
2019-04-01T13:04:54.551Z,12.30
2019-04-01T13:05:54.479Z,12.50